createdAt,value
2023-05-09T00:00:15.299Z,41.63
2023-05-09T00:02:46.195Z,41.68
2023-05-09T00:05:15.161Z,41.68
2023-05-09T00:07:43.937Z,41.72
2023-05-09T00:10:12.448Z,41.51
2023-05-09T00:12:41.743Z,41.67
2023-05-09T00:15:13.165Z,41.74
2023-05-09T00:17:41.953Z,41.93
2023-05-09T00:20:12.579Z,42.13
2023-05-09T00:22:42.113Z,42.17
2023-05-09T00:25:12.672Z,42.30
2023-05-09T00:27:44.101Z,42.30
2023-05-09T00:30:14.355Z,42.07
2023-05-09T00:32:45.648Z,42.20
2023-05-09T00:35:14.133Z,42.41
2023-05-09T00:37:42.715Z,42.42
2023-05-09T00:40:12.190Z,42.47
2023-05-09T00:42:40.836Z,42.53
2023-05-09T00:45:10.936Z,42.20
2023-05-09T00:47:40.886Z,42.30
2023-05-09T00:50:11.189Z,42.16
2023-05-09T00:52:40.507Z,42.27
2023-05-09T00:55:09.926Z,42.77
2023-05-09T00:57:38.340Z,42.47
2023-05-09T01:00:13.077Z,42.18
2023-05-09T01:02:44.797Z,42.17
2023-05-09T01:05:13.834Z,42.03
2023-05-09T01:07:52.107Z,42.17
2023-05-09T01:10:33.181Z,41.97
2023-05-09T01:13:07.212Z,42.28
2023-05-09T01:15:41.347Z,42.32
2023-05-09T01:18:18.789Z,42.38
2023-05-09T01:20:54.172Z,42.42
2023-05-09T01:24:02.134Z,42.50
2023-05-09T01:26:46.124Z,42.41
2023-05-09T01:29:34.810Z,42.44
2023-05-09T01:32:08.893Z,42.48
2023-05-09T01:34:40.046Z,42.15
2023-05-09T01:37:09.643Z,42.24
2023-05-09T01:39:42.461Z,42.26
2023-05-09T01:42:14.143Z,42.37
2023-05-09T01:44:47.026Z,42.43
2023-05-09T01:47:17.459Z,42.44
2023-05-09T01:49:47.229Z,42.47
2023-05-09T01:52:18.358Z,42.62
2023-05-09T01:54:47.821Z,42.52
2023-05-09T01:57:19.522Z,42.36
2023-05-09T01:59:50.956Z,42.45
2023-05-09T02:02:19.919Z,42.51
2023-05-09T02:04:49.636Z,42.61
2023-05-09T02:07:18.830Z,42.77
2023-05-09T02:09:48.787Z,42.65
2023-05-09T02:12:17.220Z,42.63
2023-05-09T02:14:45.708Z,42.80
2023-05-09T02:17:17.086Z,42.75
2023-05-09T02:19:45.629Z,42.60
2023-05-09T02:22:14.776Z,42.52
2023-05-09T02:24:44.980Z,42.69
2023-05-09T02:27:14.336Z,42.46
2023-05-09T02:29:46.648Z,42.44
2023-05-09T02:32:21.363Z,42.38
2023-05-09T02:34:52.466Z,42.42
2023-05-09T02:37:22.085Z,42.36
2023-05-09T02:39:50.411Z,42.35
2023-05-09T02:42:25.465Z,42.47
2023-05-09T02:44:53.945Z,42.24
2023-05-09T02:47:24.016Z,42.27
2023-05-09T02:49:52.521Z,42.10
2023-05-09T02:52:21.438Z,42.17
2023-05-09T02:54:49.834Z,42.07
2023-05-09T02:57:18.177Z,42.21
2023-05-09T02:59:46.503Z,42.10
2023-05-09T03:02:14.988Z,42.19
2023-05-09T03:04:44.841Z,42.26
2023-05-09T03:07:13.338Z,42.07
2023-05-09T03:09:41.653Z,42.21
2023-05-09T03:12:10.290Z,42.31
2023-05-09T03:14:41.632Z,42.40
2023-05-09T03:17:09.941Z,42.27
2023-05-09T03:19:38.351Z,42.11
2023-05-09T03:22:08.039Z,42.56
2023-05-09T03:24:36.971Z,42.39
2023-05-09T03:27:05.374Z,42.23
2023-05-09T03:29:33.742Z,42.19
2023-05-09T03:32:02.175Z,42.15
2023-05-09T03:34:30.540Z,42.35
2023-05-09T03:36:59.189Z,42.55
2023-05-09T03:39:28.918Z,42.50
2023-05-09T03:41:57.337Z,42.30
2023-05-09T03:44:25.723Z,42.22
2023-05-09T03:46:56.263Z,42.16
2023-05-09T03:49:24.609Z,42.17
2023-05-09T03:51:53.112Z,42.37
2023-05-09T03:54:24.277Z,42.33
2023-05-09T03:56:54.015Z,42.40
2023-05-09T03:59:22.352Z,42.49
2023-05-09T04:01:50.903Z,42.58
2023-05-09T04:04:19.362Z,42.73
2023-05-09T04:06:48.504Z,43.04
2023-05-09T04:09:16.845Z,42.98
2023-05-09T04:11:45.274Z,42.75
2023-05-09T04:14:15.174Z,42.78
2023-05-09T04:16:44.007Z,42.79
2023-05-09T04:19:12.386Z,42.94
2023-05-09T04:21:40.772Z,42.65
2023-05-09T04:24:11.677Z,41.98
2023-05-09T04:26:40.091Z,41.94
2023-05-09T04:29:08.385Z,42.00
2023-05-09T04:31:38.197Z,41.91
2023-05-09T04:34:09.508Z,41.55
2023-05-09T04:36:41.087Z,41.81
2023-05-09T04:39:10.499Z,41.58
2023-05-09T04:41:40.558Z,41.71
2023-05-09T04:44:09.054Z,41.57
2023-05-09T04:46:38.945Z,41.34
2023-05-09T04:49:10.098Z,41.52
2023-05-09T04:51:38.407Z,41.53
2023-05-09T04:54:06.817Z,41.57
2023-05-09T04:56:35.142Z,41.47
2023-05-09T04:59:03.731Z,41.56
2023-05-09T05:01:32.040Z,41.36
2023-05-09T05:04:02.129Z,41.62
2023-05-09T05:06:31.843Z,41.65
2023-05-09T05:09:00.209Z,41.59
2023-05-09T05:11:28.573Z,41.79
2023-05-09T05:13:56.917Z,41.79
2023-05-09T05:16:25.385Z,41.82
2023-05-09T05:18:53.705Z,41.92
2023-05-09T05:21:23.457Z,42.06
2023-05-09T05:23:51.760Z,42.04
2023-05-09T05:26:20.163Z,42.14
2023-05-09T05:28:48.501Z,42.19
2023-05-09T05:31:16.827Z,42.01
2023-05-09T05:33:45.167Z,42.01
2023-05-09T05:36:13.611Z,41.98
2023-05-09T05:38:43.311Z,42.22
2023-05-09T05:41:15.686Z,42.23
2023-05-09T05:43:44.104Z,41.95
2023-05-09T05:46:12.496Z,41.66
2023-05-09T05:48:40.931Z,42.07
2023-05-09T05:51:09.366Z,41.95
2023-05-09T05:53:37.673Z,42.08
2023-05-09T05:56:08.152Z,41.91
2023-05-09T05:58:36.525Z,42.05
2023-05-09T06:01:05.171Z,42.01
2023-05-09T06:03:33.759Z,41.89
2023-05-09T06:06:02.602Z,41.95
2023-05-09T06:08:31.039Z,41.95
2023-05-09T06:10:59.453Z,41.88
2023-05-09T06:13:29.471Z,41.40
2023-05-09T06:16:07.777Z,41.14
2023-05-09T06:18:44.141Z,40.96
2023-05-09T06:21:12.532Z,40.59
2023-05-09T06:23:51.028Z,40.56
2023-05-09T06:26:27.043Z,40.54
2023-05-09T06:28:57.281Z,40.47
2023-05-09T06:31:25.901Z,40.77
2023-05-09T06:33:54.535Z,40.02
2023-05-09T06:36:23.054Z,39.80
2023-05-09T06:38:51.382Z,40.04
2023-05-09T06:41:19.809Z,40.10
2023-05-09T06:43:49.873Z,40.00
2023-05-09T06:46:19.810Z,39.92
2023-05-09T06:48:48.174Z,39.33
2023-05-09T06:51:16.574Z,39.40
2023-05-09T06:53:44.995Z,39.45
2023-05-09T06:56:13.965Z,39.08
2023-05-09T06:58:42.462Z,39.21
2023-05-09T07:01:10.783Z,38.71
2023-05-09T07:03:40.781Z,38.51
2023-05-09T07:06:09.453Z,38.76
2023-05-09T07:08:37.825Z,39.04
2023-05-09T07:11:06.682Z,39.06
2023-05-09T07:13:35.160Z,38.47
2023-05-09T07:16:04.121Z,38.56
2023-05-09T07:18:32.518Z,37.89
2023-05-09T07:21:02.835Z,37.92
2023-05-09T07:23:31.170Z,37.77
2023-05-09T07:25:59.932Z,38.13
2023-05-09T07:28:28.376Z,37.67
2023-05-09T07:30:57.670Z,37.83
2023-05-09T07:33:26.291Z,38.17
2023-05-09T07:35:54.684Z,38.37
2023-05-09T07:38:24.568Z,38.43
2023-05-09T07:40:53.333Z,38.91
2023-05-09T07:43:21.714Z,38.63
2023-05-09T07:45:50.128Z,38.77
2023-05-09T07:48:21.477Z,38.83
2023-05-09T07:50:49.940Z,38.32
2023-05-09T07:53:18.324Z,38.51
2023-05-09T07:55:50.297Z,37.61
2023-05-09T07:58:18.660Z,37.71
2023-05-09T08:00:47.075Z,37.52
2023-05-09T08:03:15.799Z,37.36
2023-05-09T08:05:44.316Z,36.64
2023-05-09T08:08:12.639Z,36.87
2023-05-09T08:10:40.943Z,36.62
2023-05-09T08:13:10.622Z,36.24
2023-05-09T08:15:38.995Z,36.32
2023-05-09T08:18:07.529Z,36.12
2023-05-09T08:20:36.274Z,36.37
2023-05-09T08:23:04.669Z,35.72
2023-05-09T08:25:33.358Z,35.83
2023-05-09T08:28:01.723Z,36.51
2023-05-09T08:30:31.484Z,35.51
2023-05-09T08:32:59.826Z,35.72
2023-05-09T08:35:28.124Z,35.92
2023-05-09T08:37:56.462Z,35.43
2023-05-09T08:40:24.955Z,35.22
2023-05-09T08:42:53.951Z,34.76
2023-05-09T08:45:31.880Z,34.83
2023-05-09T08:48:01.060Z,34.51
2023-05-09T08:50:30.318Z,34.61
2023-05-09T08:52:58.798Z,34.03
2023-05-09T08:55:27.710Z,34.59
2023-05-09T08:57:56.197Z,33.97
2023-05-09T09:00:25.769Z,33.78
2023-05-09T09:02:56.449Z,33.15
2023-05-09T09:05:40.808Z,32.60
2023-05-09T09:08:11.969Z,32.12
2023-05-09T09:10:43.463Z,31.96
2023-05-09T09:13:14.108Z,32.46
2023-05-09T09:15:45.218Z,32.74
2023-05-09T09:18:31.369Z,32.79
2023-05-09T09:21:06.229Z,32.40
2023-05-09T09:23:34.803Z,33.27
2023-05-09T09:26:04.956Z,32.87
2023-05-09T09:28:33.457Z,32.15
2023-05-09T09:31:01.956Z,32.04
2023-05-09T09:33:31.768Z,31.97
2023-05-09T09:36:00.230Z,32.25
2023-05-09T09:38:28.519Z,31.74
2023-05-09T09:40:58.841Z,31.82
2023-05-09T09:43:30.952Z,31.62
2023-05-09T09:46:02.453Z,31.28
2023-05-09T09:48:35.035Z,31.87
2023-05-09T09:51:10.228Z,32.07
2023-05-09T09:53:41.823Z,31.68
2023-05-09T09:56:10.688Z,31.77
2023-05-09T09:58:39.010Z,31.45
2023-05-09T10:01:08.220Z,31.30
2023-05-09T10:03:39.832Z,30.88
2023-05-09T10:06:12.689Z,30.74
2023-05-09T10:08:41.658Z,30.66
2023-05-09T10:11:11.293Z,30.52
2023-05-09T10:13:39.993Z,30.40
2023-05-09T10:16:10.924Z,30.05
2023-05-09T10:18:43.491Z,30.05
2023-05-09T10:21:16.076Z,29.56
2023-05-09T10:23:49.895Z,29.94
2023-05-09T10:26:27.320Z,29.83
2023-05-09T10:28:58.637Z,30.30
2023-05-09T10:31:31.474Z,30.05
2023-05-09T10:34:05.760Z,29.70
2023-05-09T10:36:34.524Z,30.32
2023-05-09T10:39:03.385Z,30.64
2023-05-09T10:41:32.727Z,29.95
2023-05-09T10:44:01.745Z,29.06
2023-05-09T10:46:30.496Z,29.31
2023-05-09T10:49:01.338Z,29.90
2023-05-09T10:51:29.886Z,29.54
2023-05-09T10:53:58.222Z,29.29
2023-05-09T10:56:30.688Z,29.46
2023-05-09T10:58:59.335Z,29.27
2023-05-09T11:01:35.047Z,28.89
2023-05-09T11:04:12.724Z,29.05
2023-05-09T11:06:51.127Z,28.52
2023-05-09T11:09:33.116Z,29.12
2023-05-09T11:12:13.469Z,28.06
2023-05-09T11:14:44.578Z,27.93
2023-05-09T11:17:14.843Z,27.21
2023-05-09T11:20:06.557Z,27.73
2023-05-09T11:22:42.333Z,28.44
2023-05-09T11:25:13.150Z,27.73
2023-05-09T11:27:48.127Z,27.07
2023-05-09T11:30:18.799Z,27.01
2023-05-09T11:32:51.532Z,26.53
2023-05-09T11:35:26.660Z,26.92
2023-05-09T11:38:03.020Z,26.88
2023-05-09T11:40:32.525Z,26.86
2023-05-09T11:43:02.315Z,26.57
2023-05-09T11:45:32.904Z,26.33
2023-05-09T11:48:02.146Z,26.57
2023-05-09T11:50:32.164Z,27.25
2023-05-09T11:53:00.469Z,24.98
2023-05-09T11:55:30.220Z,26.54
2023-05-09T11:57:59.897Z,26.60
2023-05-09T12:00:28.620Z,25.84
2023-05-09T12:02:57.121Z,25.81
2023-05-09T12:05:25.523Z,24.65
2023-05-09T12:07:55.233Z,24.73
2023-05-09T12:10:24.629Z,24.57
2023-05-09T12:12:55.693Z,24.64
2023-05-09T12:15:24.752Z,23.15
2023-05-09T12:18:04.104Z,22.72
2023-05-09T12:20:43.152Z,24.03
2023-05-09T12:23:14.378Z,24.01
2023-05-09T12:25:49.890Z,24.99
2023-05-09T12:28:18.917Z,24.50
2023-05-09T12:30:47.469Z,23.96
2023-05-09T12:33:16.347Z,23.60
2023-05-09T12:35:48.355Z,23.54
2023-05-09T12:38:23.274Z,24.25
2023-05-09T12:41:03.480Z,25.10
2023-05-09T12:43:33.905Z,24.96
2023-05-09T12:46:03.907Z,25.32
2023-05-09T12:48:38.256Z,25.22
2023-05-09T12:51:07.220Z,24.76
2023-05-09T12:53:40.399Z,24.50
2023-05-09T12:56:15.913Z,23.01
2023-05-09T12:58:51.116Z,23.84
2023-05-09T13:01:19.995Z,24.51
2023-05-09T13:03:53.523Z,24.31
2023-05-09T13:06:24.148Z,24.58
2023-05-09T13:09:15.514Z,24.86
2023-05-09T13:11:43.847Z,24.03
2023-05-09T13:14:12.388Z,22.27
2023-05-09T13:16:41.141Z,22.56
2023-05-09T13:19:09.811Z,22.37
2023-05-09T13:21:38.356Z,22.83
2023-05-09T13:24:07.757Z,23.54
2023-05-09T13:26:37.446Z,24.72
2023-05-09T13:29:05.881Z,24.96
2023-05-09T13:31:34.359Z,25.25
2023-05-09T13:34:02.598Z,25.04
2023-05-09T13:36:32.573Z,25.67
2023-05-09T13:39:00.882Z,25.66
2023-05-09T13:41:31.836Z,25.24
2023-05-09T13:44:01.548Z,25.13
2023-05-09T13:46:29.948Z,24.73
2023-05-09T13:48:58.348Z,25.50
2023-05-09T13:51:27.297Z,25.47
2023-05-09T13:53:55.675Z,25.84
2023-05-09T13:56:23.988Z,24.95
2023-05-09T13:58:52.337Z,24.48
2023-05-09T14:01:25.146Z,24.08
2023-05-09T14:03:54.159Z,24.46
2023-05-09T14:06:22.565Z,24.39
2023-05-09T14:08:50.955Z,24.28
2023-05-09T14:11:19.254Z,24.28
2023-05-09T14:13:47.589Z,24.10
2023-05-09T14:16:16.006Z,23.77
2023-05-09T14:18:45.793Z,24.66
2023-05-09T14:21:14.248Z,24.96
2023-05-09T14:23:43.562Z,24.92
2023-05-09T14:26:11.909Z,24.72
2023-05-09T14:28:40.202Z,25.16
2023-05-09T14:31:08.548Z,24.82
2023-05-09T14:33:36.902Z,25.33
2023-05-09T14:36:07.550Z,25.02
2023-05-09T14:38:36.894Z,25.28
2023-05-09T14:41:06.990Z,25.26
2023-05-09T14:43:35.294Z,25.05
2023-05-09T14:46:03.745Z,25.56
2023-05-09T14:48:32.216Z,25.01
2023-05-09T14:51:00.718Z,24.55
2023-05-09T14:53:30.792Z,24.28
2023-05-09T14:55:59.181Z,23.88
2023-05-09T14:58:30.914Z,24.46
2023-05-09T15:00:59.334Z,24.66
2023-05-09T15:03:30.838Z,25.10
2023-05-09T15:05:59.644Z,25.21
2023-05-09T15:08:29.320Z,24.98
2023-05-09T15:10:57.853Z,25.23
2023-05-09T15:13:26.304Z,25.50
2023-05-09T15:15:54.763Z,25.59
2023-05-09T15:18:28.621Z,25.34
2023-05-09T15:20:57.028Z,25.09
2023-05-09T15:23:25.364Z,24.50
2023-05-09T15:26:01.336Z,25.02
2023-05-09T15:28:29.718Z,25.03
2023-05-09T15:30:59.944Z,24.69
2023-05-09T15:33:28.558Z,24.17
2023-05-09T15:36:00.096Z,24.30
2023-05-09T15:38:31.399Z,24.07
2023-05-09T15:41:01.127Z,24.08
2023-05-09T15:43:29.452Z,24.43
2023-05-09T15:45:59.994Z,24.12
2023-05-09T15:48:28.790Z,24.36
2023-05-09T15:50:57.088Z,24.49
2023-05-09T15:53:27.570Z,24.55
2023-05-09T15:55:56.884Z,24.45
2023-05-09T15:58:27.016Z,24.28
2023-05-09T16:00:55.908Z,23.57
2023-05-09T16:03:25.036Z,23.09
2023-05-09T16:05:59.190Z,23.19
2023-05-09T16:08:27.625Z,23.55
2023-05-09T16:10:56.021Z,24.06
2023-05-09T16:13:24.466Z,24.21
2023-05-09T16:15:54.477Z,24.19
2023-05-09T16:18:22.829Z,24.28
2023-05-09T16:20:51.206Z,24.69
2023-05-09T16:23:21.108Z,24.76
2023-05-09T16:25:50.677Z,24.62
2023-05-09T16:28:23.478Z,24.14
2023-05-09T16:30:53.840Z,24.41
2023-05-09T16:33:22.186Z,24.43
2023-05-09T16:35:50.525Z,24.02
2023-05-09T16:38:19.020Z,24.43
2023-05-09T16:40:47.381Z,24.63
2023-05-09T16:43:16.439Z,24.83
2023-05-09T16:45:46.706Z,25.24
2023-05-09T16:48:18.720Z,25.51
2023-05-09T16:50:48.031Z,25.47
2023-05-09T16:53:18.900Z,25.71
2023-05-09T16:55:49.846Z,25.69
2023-05-09T16:58:18.486Z,25.87
2023-05-09T17:00:46.934Z,25.62
2023-05-09T17:03:16.758Z,25.96
2023-05-09T17:05:45.120Z,26.16
2023-05-09T17:08:13.525Z,26.22
2023-05-09T17:10:42.286Z,26.38
2023-05-09T17:13:11.093Z,26.78
2023-05-09T17:15:39.475Z,26.84
2023-05-09T17:18:07.918Z,26.53
2023-05-09T17:20:37.736Z,26.66
2023-05-09T17:23:06.148Z,26.95
2023-05-09T17:25:34.570Z,27.06
2023-05-09T17:28:03.321Z,26.84
2023-05-09T17:30:32.068Z,27.25
2023-05-09T17:33:00.596Z,27.11
2023-05-09T17:35:30.401Z,27.13
2023-05-09T17:38:00.270Z,27.03
2023-05-09T17:40:28.879Z,26.96
2023-05-09T17:42:57.273Z,27.06
2023-05-09T17:45:25.618Z,27.08
2023-05-09T17:47:54.129Z,27.43
2023-05-09T17:50:22.890Z,27.39
2023-05-09T17:52:51.622Z,27.56
2023-05-09T17:55:24.978Z,27.71
2023-05-09T17:57:53.681Z,27.70
2023-05-09T18:00:22.588Z,27.79
2023-05-09T18:02:51.711Z,28.13
2023-05-09T18:05:20.771Z,28.20
2023-05-09T18:07:49.614Z,28.43
2023-05-09T18:10:18.237Z,28.56
2023-05-09T18:12:48.345Z,28.77
2023-05-09T18:15:16.816Z,28.92
2023-05-09T18:17:48.426Z,29.37
2023-05-09T18:20:17.121Z,29.42
2023-05-09T18:22:45.833Z,29.70
2023-05-09T18:25:14.356Z,29.70
2023-05-09T18:27:42.698Z,29.95
2023-05-09T18:30:13.812Z,30.06
2023-05-09T18:32:42.574Z,30.05
2023-05-09T18:35:11.185Z,30.20
2023-05-09T18:37:42.487Z,30.19
2023-05-09T18:40:15.345Z,30.33
2023-05-09T18:42:44.314Z,30.23
2023-05-09T18:45:15.918Z,30.55
2023-05-09T18:47:44.477Z,30.65
2023-05-09T18:50:14.709Z,30.60
2023-05-09T18:52:44.524Z,30.63
2023-05-09T18:55:13.156Z,30.73
2023-05-09T18:57:41.645Z,30.72
2023-05-09T19:00:12.476Z,30.88
2023-05-09T19:02:45.074Z,31.04
2023-05-09T19:05:13.464Z,31.31
2023-05-09T19:07:41.885Z,31.16
2023-05-09T19:10:11.624Z,31.21
2023-05-09T19:12:40.114Z,31.42
2023-05-09T19:15:10.436Z,31.70
2023-05-09T19:17:42.127Z,31.91
2023-05-09T19:20:14.256Z,31.91
2023-05-09T19:22:46.316Z,31.80
2023-05-09T19:25:14.705Z,32.04
2023-05-09T19:27:43.181Z,31.99
2023-05-09T19:30:15.336Z,31.86
2023-05-09T19:32:44.127Z,32.23
2023-05-09T19:35:13.998Z,31.77
2023-05-09T19:37:42.545Z,32.08
2023-05-09T19:40:11.949Z,32.04
2023-05-09T19:42:41.950Z,31.93
2023-05-09T19:45:11.690Z,32.48
2023-05-09T19:47:40.148Z,32.37
2023-05-09T19:50:09.925Z,32.38
2023-05-09T19:52:39.794Z,32.54
2023-05-09T19:55:09.385Z,32.33
2023-05-09T19:57:37.982Z,32.43
2023-05-09T20:00:08.096Z,32.40
2023-05-09T20:02:36.549Z,32.44
2023-05-09T20:05:05.338Z,32.70
2023-05-09T20:07:33.674Z,32.72
2023-05-09T20:10:03.401Z,32.51
2023-05-09T20:12:31.980Z,32.93
2023-05-09T20:15:03.397Z,32.92
2023-05-09T20:17:31.808Z,32.88
2023-05-09T20:20:00.147Z,32.62
2023-05-09T20:22:28.640Z,32.95
2023-05-09T20:24:59.942Z,33.02
2023-05-09T20:27:29.645Z,33.26
2023-05-09T20:29:57.961Z,33.08
2023-05-09T20:32:26.727Z,33.54
2023-05-09T20:35:00.064Z,33.31
2023-05-09T20:37:28.348Z,33.33
2023-05-09T20:39:56.795Z,33.50
2023-05-09T20:42:25.740Z,33.54
2023-05-09T20:45:01.021Z,33.50
2023-05-09T20:47:29.373Z,33.58
2023-05-09T20:49:58.482Z,33.45
2023-05-09T20:52:27.025Z,33.42
2023-05-09T20:54:59.210Z,34.01
2023-05-09T20:57:27.566Z,33.86
2023-05-09T20:59:57.239Z,33.99
2023-05-09T21:02:25.749Z,34.06
2023-05-09T21:04:56.744Z,34.50
2023-05-09T21:07:25.046Z,34.45
2023-05-09T21:09:54.154Z,34.18
2023-05-09T21:12:22.485Z,34.20
2023-05-09T21:14:51.097Z,34.52
2023-05-09T21:17:21.120Z,34.45
2023-05-09T21:19:51.585Z,34.59
2023-05-09T21:22:20.054Z,34.59
2023-05-09T21:24:48.354Z,34.65
2023-05-09T21:27:16.680Z,34.68
2023-05-09T21:29:49.069Z,34.96
2023-05-09T21:32:17.735Z,34.78
2023-05-09T21:34:54.722Z,35.10
2023-05-09T21:39:51.119Z,34.89
2023-05-09T21:42:19.444Z,34.85
2023-05-09T21:44:47.743Z,35.08
2023-05-09T21:47:18.660Z,35.07
2023-05-09T21:49:48.424Z,35.09
2023-05-09T21:52:18.388Z,35.03
2023-05-09T21:54:46.796Z,35.24
2023-05-09T21:57:18.151Z,35.21
2023-05-09T21:59:46.450Z,35.28
2023-05-09T22:02:14.920Z,35.42
2023-05-09T22:04:46.064Z,35.86
2023-05-09T22:07:15.722Z,35.80
2023-05-09T22:09:44.087Z,35.54
2023-05-09T22:12:12.464Z,35.57
2023-05-09T22:14:52.689Z,35.67
2023-05-09T22:17:29.104Z,35.97
2023-05-09T22:19:57.414Z,35.94
2023-05-09T22:22:27.999Z,35.73
2023-05-09T22:24:56.317Z,35.81
2023-05-09T22:27:24.659Z,35.76
2023-05-09T22:29:53.026Z,36.16
2023-05-09T22:32:21.305Z,36.03
2023-05-09T22:34:54.375Z,35.93
2023-05-09T22:37:22.729Z,36.18
2023-05-09T22:39:52.408Z,36.21
2023-05-09T22:42:20.703Z,36.28
2023-05-09T22:44:54.649Z,36.19
2023-05-09T22:47:22.968Z,36.77
2023-05-09T22:49:51.948Z,36.56
2023-05-09T22:52:20.655Z,37.17
2023-05-09T22:54:48.930Z,36.97
2023-05-09T22:57:23.216Z,37.13
2023-05-09T22:59:51.622Z,37.55
2023-05-09T23:02:19.958Z,37.27
2023-05-09T23:04:48.270Z,37.64
2023-05-09T23:07:16.622Z,37.66
2023-05-09T23:09:44.946Z,37.58
2023-05-09T23:12:13.280Z,37.71
2023-05-09T23:14:42.937Z,37.61
2023-05-09T23:17:11.338Z,37.78
2023-05-09T23:19:42.572Z,37.85
2023-05-09T23:22:11.451Z,38.16
2023-05-09T23:24:39.757Z,38.14
2023-05-09T23:27:08.038Z,38.15
2023-05-09T23:29:36.301Z,37.91
2023-05-09T23:32:06.454Z,37.93
2023-05-09T23:34:36.234Z,38.07
2023-05-09T23:37:04.764Z,38.20
2023-05-09T23:39:33.127Z,38.28
2023-05-09T23:42:01.477Z,38.65
2023-05-09T23:44:30.146Z,38.78
2023-05-09T23:47:01.907Z,38.68
2023-05-09T23:49:31.800Z,38.50
2023-05-09T23:52:00.136Z,38.39
2023-05-09T23:54:28.676Z,38.50
2023-05-09T23:56:58.072Z,38.74
2023-05-09T23:59:26.390Z,39.20
